createdAt,value
2022-08-19T00:02:20.958Z,21.20
2022-08-19T00:04:53.300Z,21.20
2022-08-19T00:07:21.267Z,21.20
2022-08-19T00:09:49.067Z,21.20
2022-08-19T00:12:16.950Z,21.20
2022-08-19T00:14:44.730Z,21.20
2022-08-19T00:17:12.443Z,21.20
2022-08-19T00:19:41.612Z,21.20
2022-08-19T00:22:09.648Z,21.30
2022-08-19T00:24:39.233Z,21.40
2022-08-19T00:27:25.873Z,21.30
2022-08-19T00:29:55.136Z,21.30
2022-08-19T00:32:23.064Z,21.10
2022-08-19T00:34:54.286Z,21.00
2022-08-19T00:37:23.778Z,21.10
2022-08-19T00:39:51.953Z,21.10
2022-08-19T00:42:20.851Z,21.10
2022-08-19T00:44:49.015Z,21.00
2022-08-19T00:47:16.733Z,21.00
2022-08-19T00:49:51.469Z,21.10
2022-08-19T00:52:24.398Z,21.10
2022-08-19T00:54:53.556Z,21.20
2022-08-19T00:57:27.916Z,21.20
2022-08-19T01:00:02.616Z,21.20
2022-08-19T01:02:32.061Z,21.30
2022-08-19T01:05:01.051Z,21.30
2022-08-19T01:07:35.857Z,21.30
2022-08-19T01:10:08.865Z,21.40
2022-08-19T01:12:37.130Z,21.40
2022-08-19T01:15:05.318Z,21.50
2022-08-19T01:17:33.363Z,21.50
2022-08-19T01:20:01.266Z,21.50
2022-08-19T01:22:34.115Z,21.40
2022-08-19T01:25:03.654Z,21.40
2022-08-19T01:27:42.966Z,21.30
2022-08-19T01:30:13.396Z,21.30
2022-08-19T01:32:41.231Z,21.20
2022-08-19T01:35:10.105Z,21.10
2022-08-19T01:37:47.464Z,21.00
2022-08-19T01:40:15.293Z,21.10
2022-08-19T01:42:43.290Z,21.10
2022-08-19T01:45:11.675Z,21.20
2022-08-19T01:47:40.346Z,21.20
2022-08-19T01:50:09.773Z,21.20
2022-08-19T01:52:37.936Z,21.20
2022-08-19T01:55:11.342Z,21.20
2022-08-19T01:57:41.154Z,21.20
2022-08-19T02:00:15.055Z,21.30
2022-08-19T02:02:44.354Z,21.30
2022-08-19T02:05:13.303Z,21.30
2022-08-19T02:07:42.255Z,21.30
2022-08-19T02:10:16.810Z,21.20
2022-08-19T02:12:44.614Z,21.10
2022-08-19T02:15:12.944Z,21.10
2022-08-19T02:17:41.395Z,21.00
2022-08-19T02:20:10.794Z,21.00
2022-08-19T02:22:38.531Z,21.00
2022-08-19T02:25:06.705Z,21.00
2022-08-19T02:27:35.751Z,21.00
2022-08-19T02:30:05.899Z,21.00
2022-08-19T02:32:34.218Z,21.00
2022-08-19T02:35:12.845Z,20.90
2022-08-19T02:37:54.659Z,20.90
2022-08-19T02:40:22.345Z,20.90
2022-08-19T02:42:51.828Z,20.90
2022-08-19T02:45:19.736Z,21.00
2022-08-19T02:47:47.515Z,21.00
2022-08-19T02:50:15.483Z,20.80
2022-08-19T02:52:43.291Z,20.70
2022-08-19T02:55:11.554Z,20.90
2022-08-19T02:57:39.503Z,21.00
2022-08-19T03:00:12.746Z,21.00
2022-08-19T03:02:40.614Z,21.00
2022-08-19T03:05:11.266Z,21.00
2022-08-19T03:07:39.462Z,21.00
2022-08-19T03:10:08.591Z,21.10
2022-08-19T03:12:38.607Z,21.10
2022-08-19T03:15:09.452Z,21.10
2022-08-19T03:17:37.863Z,21.10
2022-08-19T03:20:06.940Z,21.20
2022-08-19T03:22:34.701Z,21.30
2022-08-19T03:25:02.455Z,21.40
2022-08-19T03:27:34.725Z,21.40
2022-08-19T03:30:03.227Z,21.40
2022-08-19T03:32:33.339Z,21.20
2022-08-19T03:35:01.651Z,21.00
2022-08-19T03:37:29.504Z,21.00
2022-08-19T03:39:57.281Z,21.00
2022-08-19T03:42:38.663Z,21.10
2022-08-19T03:45:13.722Z,21.10
2022-08-19T03:47:42.755Z,21.10
2022-08-19T03:50:11.663Z,21.10
2022-08-19T03:52:40.302Z,21.10
2022-08-19T03:55:13.198Z,21.20
2022-08-19T03:57:41.004Z,21.20
2022-08-19T04:00:13.041Z,21.20
2022-08-19T04:02:56.451Z,21.20
2022-08-19T04:05:29.276Z,21.20
2022-08-19T04:07:59.929Z,21.10
2022-08-19T04:10:28.516Z,21.10
2022-08-19T04:12:56.238Z,21.10
2022-08-19T04:15:23.995Z,21.10
2022-08-19T04:17:53.001Z,21.00
2022-08-19T04:20:20.826Z,21.00
2022-08-19T04:22:48.613Z,21.00
2022-08-19T04:25:16.413Z,21.00
2022-08-19T04:27:47.315Z,20.90
2022-08-19T04:30:15.467Z,20.90
2022-08-19T04:32:44.492Z,21.00
2022-08-19T04:35:17.006Z,20.90
2022-08-19T04:37:46.484Z,20.90
2022-08-19T04:40:28.235Z,21.00
2022-08-19T04:42:56.165Z,21.00
2022-08-19T04:45:24.498Z,20.80
2022-08-19T04:47:58.806Z,20.90
2022-08-19T04:50:47.360Z,21.00
2022-08-19T04:53:15.096Z,21.00
2022-08-19T04:55:44.084Z,21.00
2022-08-19T04:58:11.888Z,21.00
2022-08-19T05:00:40.636Z,21.10
2022-08-19T05:03:08.963Z,21.10
2022-08-19T05:05:45.201Z,20.80
2022-08-19T05:08:31.476Z,20.80
2022-08-19T05:10:59.648Z,20.90
2022-08-19T05:13:28.299Z,21.00
2022-08-19T05:15:57.725Z,21.00
2022-08-19T05:18:39.589Z,20.80
2022-08-19T05:21:22.840Z,21.00
2022-08-19T05:23:51.956Z,21.10
2022-08-19T05:26:19.662Z,21.30
2022-08-19T05:28:47.567Z,21.40
2022-08-19T05:31:15.358Z,21.50
2022-08-19T05:33:43.059Z,21.40
2022-08-19T05:36:10.839Z,21.50
2022-08-19T05:38:38.709Z,21.60
2022-08-19T05:41:11.131Z,21.60
2022-08-19T05:43:39.567Z,21.70
2022-08-19T05:46:08.034Z,21.70
2022-08-19T05:48:36.692Z,21.80
2022-08-19T05:51:09.279Z,21.80
2022-08-19T05:53:38.021Z,21.90
2022-08-19T05:56:06.686Z,22.00
2022-08-19T05:58:35.813Z,22.10
2022-08-19T06:01:06.119Z,22.00
2022-08-19T06:03:35.543Z,22.00
2022-08-19T06:06:03.488Z,21.90
2022-08-19T06:08:34.549Z,21.90
2022-08-19T06:11:19.932Z,21.90
2022-08-19T06:13:59.457Z,22.00
2022-08-19T06:16:28.626Z,22.00
2022-08-19T06:18:58.213Z,22.10
2022-08-19T06:21:28.676Z,22.20
2022-08-19T06:23:57.176Z,22.20
2022-08-19T06:26:25.797Z,22.30
2022-08-19T06:28:55.340Z,22.30
2022-08-19T06:31:26.635Z,22.40
2022-08-19T06:33:55.011Z,22.40
2022-08-19T06:36:28.376Z,22.50
2022-08-19T06:38:57.788Z,22.50
2022-08-19T06:41:25.515Z,22.60
2022-08-19T06:43:56.401Z,22.70
2022-08-19T06:46:24.867Z,22.70
2022-08-19T06:48:55.171Z,22.80
2022-08-19T06:51:24.644Z,22.80
2022-08-19T06:53:55.501Z,22.90
2022-08-19T06:56:31.537Z,22.90
2022-08-19T06:59:00.869Z,22.90
2022-08-19T07:01:28.704Z,22.90
2022-08-19T07:03:57.531Z,23.00
2022-08-19T07:06:43.287Z,23.00
2022-08-19T07:09:14.004Z,23.10
2022-08-19T07:11:46.370Z,23.00
2022-08-19T07:14:19.545Z,23.10
2022-08-19T07:16:48.847Z,23.40
2022-08-19T07:19:19.048Z,23.60
2022-08-19T07:21:50.778Z,23.90
2022-08-19T07:24:19.214Z,24.00
2022-08-19T07:26:47.538Z,24.10
2022-08-19T07:29:24.118Z,24.20
2022-08-19T07:31:56.948Z,24.30
2022-08-19T07:34:26.223Z,24.50
2022-08-19T07:36:55.039Z,24.80
2022-08-19T07:39:24.824Z,24.90
2022-08-19T07:41:52.685Z,25.20
2022-08-19T07:44:23.758Z,25.40
2022-08-19T07:46:56.496Z,25.50
2022-08-19T07:49:25.083Z,25.40
2022-08-19T07:51:54.988Z,25.30
2022-08-19T07:54:24.833Z,25.20
2022-08-19T07:56:53.465Z,25.10
2022-08-19T07:59:23.535Z,24.90
2022-08-19T08:01:52.183Z,25.00
2022-08-19T08:04:34.670Z,25.10
2022-08-19T08:07:16.615Z,25.20
2022-08-19T08:09:49.663Z,25.30
2022-08-19T08:12:34.107Z,25.30
2022-08-19T08:15:12.768Z,25.50
2022-08-19T08:17:51.463Z,25.90
2022-08-19T08:20:20.899Z,26.40
2022-08-19T08:23:03.852Z,27.30
2022-08-19T08:25:34.213Z,27.80
2022-08-19T08:28:02.227Z,28.20
2022-08-19T08:30:33.674Z,28.20
2022-08-19T08:33:02.544Z,28.20
2022-08-19T08:35:30.652Z,28.10
2022-08-19T08:37:58.725Z,28.10
2022-08-19T08:40:31.543Z,28.00
2022-08-19T08:43:05.842Z,28.10
2022-08-19T08:45:53.483Z,28.50
2022-08-19T08:48:29.004Z,29.00
2022-08-19T08:50:58.324Z,30.40
2022-08-19T08:53:31.749Z,31.20
2022-08-19T08:56:06.508Z,31.80
2022-08-19T08:58:42.824Z,31.90
2022-08-19T09:01:13.732Z,31.80
2022-08-19T09:03:46.201Z,31.50
2022-08-19T09:06:21.064Z,31.30
2022-08-19T09:09:04.484Z,31.20
2022-08-19T09:11:54.673Z,30.80
2022-08-19T09:14:52.486Z,30.40
2022-08-19T09:17:31.507Z,30.10
2022-08-19T09:20:05.503Z,29.80
2022-08-19T09:22:33.927Z,29.50
2022-08-19T09:25:01.700Z,29.50
2022-08-19T09:27:43.194Z,29.90
2022-08-19T09:30:16.217Z,30.20
2022-08-19T09:32:46.189Z,30.60
2022-08-19T09:35:16.474Z,30.40
2022-08-19T09:37:44.828Z,30.50
2022-08-19T09:40:14.318Z,31.20
2022-08-19T09:42:50.342Z,32.20
2022-08-19T09:45:22.969Z,33.10
2022-08-19T09:47:55.194Z,33.30
2022-08-19T09:50:24.867Z,33.80
2022-08-19T09:52:57.149Z,33.80
2022-08-19T09:55:32.062Z,33.80
2022-08-19T09:58:02.261Z,33.10
2022-08-19T10:00:31.056Z,32.60
2022-08-19T10:03:00.298Z,32.20
2022-08-19T10:05:42.951Z,31.60
2022-08-19T10:08:13.021Z,31.20
2022-08-19T10:10:43.988Z,30.80
2022-08-19T10:13:15.127Z,30.40
2022-08-19T10:15:47.115Z,29.70
2022-08-19T10:18:18.739Z,29.50
2022-08-19T10:20:51.441Z,29.20
2022-08-19T10:23:21.280Z,29.00
2022-08-19T10:25:49.671Z,28.70
2022-08-19T10:28:19.544Z,28.70
2022-08-19T10:30:48.262Z,28.90
2022-08-19T10:33:27.117Z,28.90
2022-08-19T10:36:08.458Z,28.60
2022-08-19T10:38:37.114Z,28.20
2022-08-19T10:41:10.395Z,28.00
2022-08-19T10:43:39.163Z,28.00
2022-08-19T10:46:13.824Z,28.10
2022-08-19T10:48:44.367Z,28.40
2022-08-19T10:51:27.316Z,29.10
2022-08-19T10:53:57.193Z,30.40
2022-08-19T10:56:39.658Z,31.70
2022-08-19T10:59:07.676Z,32.70
2022-08-19T11:01:36.858Z,32.60
2022-08-19T11:04:09.802Z,32.40
2022-08-19T11:06:39.259Z,32.10
2022-08-19T11:09:07.406Z,32.20
2022-08-19T11:11:41.747Z,32.20
2022-08-19T11:14:10.298Z,33.10
2022-08-19T11:16:39.851Z,34.20
2022-08-19T11:19:10.428Z,35.10
2022-08-19T11:21:41.243Z,35.30
2022-08-19T11:24:11.795Z,34.60
2022-08-19T11:26:41.339Z,33.80
2022-08-19T11:29:13.187Z,33.20
2022-08-19T11:31:42.526Z,32.70
2022-08-19T11:34:14.409Z,32.70
2022-08-19T11:36:44.889Z,32.90
2022-08-19T11:39:15.342Z,32.80
2022-08-19T11:41:43.257Z,32.60
2022-08-19T11:44:11.352Z,32.00
2022-08-19T11:46:40.257Z,31.60
2022-08-19T11:49:13.826Z,31.50
2022-08-19T11:51:44.668Z,31.70
2022-08-19T11:54:13.747Z,32.50
2022-08-19T11:56:42.144Z,33.00
2022-08-19T11:59:14.594Z,33.20
2022-08-19T12:01:44.114Z,33.10
2022-08-19T12:04:12.521Z,32.80
2022-08-19T12:06:41.956Z,32.40
2022-08-19T12:09:12.182Z,31.60
2022-08-19T12:11:41.410Z,31.20
2022-08-19T12:14:14.686Z,30.60
2022-08-19T12:16:50.931Z,30.10
2022-08-19T12:19:21.844Z,30.10
2022-08-19T12:21:51.261Z,29.90
2022-08-19T12:24:23.966Z,30.10
2022-08-19T12:26:53.633Z,29.90
2022-08-19T12:29:23.919Z,30.00
2022-08-19T12:31:52.246Z,30.00
2022-08-19T12:34:20.861Z,30.30
2022-08-19T12:36:50.074Z,30.40
2022-08-19T12:39:17.938Z,30.20
2022-08-19T12:41:51.442Z,29.70
2022-08-19T12:44:28.956Z,29.30
2022-08-19T12:47:00.086Z,29.00
2022-08-19T12:49:54.324Z,28.60
2022-08-19T12:52:22.882Z,28.50
2022-08-19T12:54:54.137Z,28.30
2022-08-19T12:57:31.467Z,28.10
2022-08-19T13:00:04.901Z,28.10
2022-08-19T13:02:38.841Z,28.10
2022-08-19T13:05:11.415Z,28.00
2022-08-19T13:07:39.831Z,27.70
2022-08-19T13:10:11.997Z,27.70
2022-08-19T13:12:44.124Z,27.70
2022-08-19T13:15:13.086Z,27.50
2022-08-19T13:17:43.771Z,27.50
2022-08-19T13:20:25.614Z,27.50
2022-08-19T13:22:53.932Z,27.50
2022-08-19T13:25:22.578Z,27.60
2022-08-19T13:27:56.014Z,27.90
2022-08-19T13:30:38.417Z,28.00
2022-08-19T13:33:15.918Z,28.10
2022-08-19T13:35:47.202Z,28.10
2022-08-19T13:38:17.246Z,28.10
2022-08-19T13:40:45.183Z,28.50
2022-08-19T13:43:22.628Z,28.90
2022-08-19T13:45:54.563Z,29.30
2022-08-19T13:48:22.700Z,29.50
2022-08-19T13:50:50.783Z,29.60
2022-08-19T13:53:18.946Z,29.60
2022-08-19T13:55:47.384Z,29.40
2022-08-19T13:58:16.467Z,29.30
2022-08-19T14:00:46.588Z,29.20
2022-08-19T14:03:14.509Z,29.00
2022-08-19T14:05:42.273Z,29.10
2022-08-19T14:08:10.117Z,29.10
2022-08-19T14:10:37.872Z,29.10
2022-08-19T14:13:06.582Z,29.20
2022-08-19T14:15:35.688Z,29.10
2022-08-19T14:18:03.459Z,29.20
2022-08-19T14:20:31.263Z,29.10
2022-08-19T14:23:00.181Z,28.90
2022-08-19T14:25:30.265Z,29.20
2022-08-19T14:27:59.005Z,29.20
2022-08-19T14:30:29.156Z,29.20
2022-08-19T14:32:59.947Z,29.30
2022-08-19T14:35:29.010Z,29.50
2022-08-19T14:37:58.692Z,29.70
2022-08-19T14:40:31.028Z,29.70
2022-08-19T14:43:04.555Z,29.60
2022-08-19T14:45:34.116Z,29.40
2022-08-19T14:48:03.287Z,29.20
2022-08-19T14:50:31.351Z,29.00
2022-08-19T14:53:04.373Z,28.80
2022-08-19T14:55:36.210Z,28.80
2022-08-19T14:58:05.000Z,28.80
2022-08-19T15:00:36.814Z,28.80
2022-08-19T15:03:06.040Z,29.00
2022-08-19T15:05:33.843Z,29.00
2022-08-19T15:08:05.384Z,29.00
2022-08-19T15:10:33.172Z,29.00
2022-08-19T15:13:01.204Z,28.90
2022-08-19T15:15:28.959Z,28.90
2022-08-19T15:18:02.924Z,28.90
2022-08-19T15:20:32.654Z,28.90
2022-08-19T15:23:01.031Z,28.80
2022-08-19T15:25:29.646Z,28.60
2022-08-19T15:27:57.853Z,28.40
2022-08-19T15:30:28.037Z,28.30
2022-08-19T15:32:56.836Z,28.20
2022-08-19T15:35:25.319Z,28.00
2022-08-19T15:37:56.117Z,28.00
2022-08-19T15:40:25.559Z,27.90
2022-08-19T15:42:53.896Z,27.80
2022-08-19T15:45:23.379Z,27.80
2022-08-19T15:47:51.256Z,27.80
2022-08-19T15:50:21.971Z,27.70
2022-08-19T15:52:52.311Z,27.70
2022-08-19T15:55:32.797Z,27.70
2022-08-19T15:58:21.865Z,27.60
2022-08-19T16:01:12.788Z,27.60
2022-08-19T16:03:55.831Z,27.60
2022-08-19T16:06:26.604Z,27.50
2022-08-19T16:08:55.088Z,27.60
2022-08-19T16:11:29.466Z,27.80
2022-08-19T16:13:59.149Z,27.90
2022-08-19T16:16:33.725Z,28.00
2022-08-19T16:19:06.047Z,28.20
2022-08-19T16:21:41.709Z,28.30
2022-08-19T16:24:12.892Z,28.30
2022-08-19T16:26:42.584Z,28.30
2022-08-19T16:29:12.259Z,28.40
2022-08-19T16:31:43.447Z,28.40
2022-08-19T16:34:12.987Z,28.50
2022-08-19T16:36:42.026Z,28.50
2022-08-19T16:39:10.762Z,28.60
2022-08-19T16:41:39.403Z,28.70
2022-08-19T16:44:10.498Z,28.80
2022-08-19T16:46:39.659Z,28.80
2022-08-19T16:49:08.360Z,28.80
2022-08-19T16:51:36.234Z,28.80
2022-08-19T16:54:05.089Z,28.90
2022-08-19T16:56:33.095Z,28.80
2022-08-19T16:59:01.004Z,28.80
2022-08-19T17:01:30.540Z,28.80
2022-08-19T17:03:58.524Z,28.80
2022-08-19T17:06:29.333Z,28.70
2022-08-19T17:09:00.256Z,28.70
2022-08-19T17:11:29.879Z,28.60
2022-08-19T17:13:58.819Z,28.50
2022-08-19T17:16:28.923Z,28.40
2022-08-19T17:19:00.451Z,28.40
2022-08-19T17:21:30.032Z,28.40
2022-08-19T17:23:58.234Z,28.30
2022-08-19T17:26:27.390Z,28.30
2022-08-19T17:28:56.972Z,28.30
2022-08-19T17:31:28.397Z,28.30
2022-08-19T17:33:58.780Z,28.20
2022-08-19T17:36:28.349Z,28.20
2022-08-19T17:38:57.476Z,28.30
2022-08-19T17:41:26.728Z,28.30
2022-08-19T17:43:55.310Z,28.10
2022-08-19T17:46:23.247Z,28.00
2022-08-19T17:48:54.945Z,27.90
2022-08-19T17:51:27.314Z,27.80
2022-08-19T17:53:55.689Z,27.70
2022-08-19T17:56:24.773Z,27.80
2022-08-19T17:59:00.193Z,27.60
2022-08-19T18:01:53.972Z,27.60
2022-08-19T18:04:18.584Z,27.60
2022-08-19T18:06:53.212Z,27.50
2022-08-19T18:09:24.840Z,27.40
2022-08-19T18:11:54.628Z,27.20
2022-08-19T18:14:32.221Z,27.20
2022-08-19T18:17:05.254Z,27.20
2022-08-19T18:19:40.889Z,27.30
2022-08-19T18:22:13.491Z,27.20
2022-08-19T18:24:42.235Z,27.10
2022-08-19T18:27:10.755Z,27.10
2022-08-19T18:29:39.987Z,27.00
2022-08-19T18:32:12.281Z,26.90
2022-08-19T18:34:40.923Z,26.90
2022-08-19T18:37:08.941Z,26.90
2022-08-19T18:39:52.143Z,26.80
2022-08-19T18:42:34.107Z,26.80
2022-08-19T18:45:15.924Z,26.80
2022-08-19T18:47:57.700Z,26.60
2022-08-19T18:50:25.425Z,26.60
2022-08-19T18:52:53.118Z,26.50
2022-08-19T18:55:23.361Z,26.50
2022-08-19T18:57:51.402Z,26.50
2022-08-19T19:00:20.684Z,26.40
2022-08-19T19:02:48.556Z,26.40
2022-08-19T19:05:16.626Z,26.40
2022-08-19T19:07:44.911Z,26.40
2022-08-19T19:10:12.914Z,26.40
2022-08-19T19:12:45.299Z,26.30
2022-08-19T19:15:13.936Z,26.20
2022-08-19T19:17:41.861Z,26.30
2022-08-19T19:20:10.399Z,26.20
2022-08-19T19:22:38.465Z,26.10
2022-08-19T19:25:08.086Z,26.10
2022-08-19T19:27:35.778Z,26.10
2022-08-19T19:30:05.288Z,26.10
2022-08-19T19:32:39.196Z,26.00
2022-08-19T19:35:09.711Z,26.00
2022-08-19T19:37:37.631Z,26.10
2022-08-19T19:40:05.967Z,26.00
2022-08-19T19:42:33.767Z,25.90
2022-08-19T19:45:02.454Z,25.90
2022-08-19T19:47:31.657Z,25.80
2022-08-19T19:50:16.016Z,25.70
2022-08-19T19:52:46.441Z,25.70
2022-08-19T19:55:18.732Z,25.60
2022-08-19T19:57:46.650Z,25.50
2022-08-19T20:00:16.534Z,25.50
2022-08-19T20:02:49.788Z,25.60
2022-08-19T20:05:20.990Z,25.60
2022-08-19T20:08:03.606Z,25.50
2022-08-19T20:10:32.247Z,25.50
2022-08-19T20:13:02.178Z,25.40
2022-08-19T20:15:31.240Z,25.40
2022-08-19T20:18:00.818Z,25.50
2022-08-19T20:20:28.755Z,25.40
2022-08-19T20:23:01.563Z,25.40
2022-08-19T20:25:30.443Z,25.40
2022-08-19T20:28:00.943Z,25.30
2022-08-19T20:30:31.060Z,25.30
2022-08-19T20:33:06.651Z,25.20
2022-08-19T20:35:37.140Z,25.30
2022-08-19T20:38:08.490Z,25.30
2022-08-19T20:40:37.690Z,25.40
2022-08-19T20:43:09.226Z,25.30
2022-08-19T20:45:37.495Z,25.20
2022-08-19T20:48:10.272Z,25.10
2022-08-19T20:50:38.688Z,24.90
2022-08-19T20:53:16.298Z,25.00
2022-08-19T20:55:46.347Z,25.00
2022-08-19T20:58:14.757Z,24.90
2022-08-19T21:00:46.097Z,25.00
2022-08-19T21:03:18.856Z,24.90
2022-08-19T21:05:47.250Z,24.90
2022-08-19T21:08:17.259Z,24.90
2022-08-19T21:10:45.484Z,24.90
2022-08-19T21:13:13.379Z,24.90
2022-08-19T21:15:43.175Z,25.00
2022-08-19T21:18:12.146Z,25.10
2022-08-19T21:20:42.903Z,25.00
2022-08-19T21:23:13.511Z,25.00
2022-08-19T21:25:41.439Z,24.90
2022-08-19T21:28:34.381Z,24.80
2022-08-19T21:31:06.910Z,24.80
2022-08-19T21:33:34.974Z,24.90
2022-08-19T21:36:05.787Z,24.90
2022-08-19T21:38:33.706Z,24.80
2022-08-19T21:41:05.838Z,24.70
2022-08-19T21:43:34.688Z,24.60
2022-08-19T21:46:02.645Z,24.70
2022-08-19T21:48:30.355Z,24.60
2022-08-19T21:50:58.157Z,24.60
2022-08-19T21:53:31.435Z,24.70
2022-08-19T21:56:02.204Z,24.70
2022-08-19T21:58:30.806Z,24.50
2022-08-19T22:00:59.117Z,24.50
2022-08-19T22:03:27.066Z,24.30
2022-08-19T22:05:55.032Z,24.30
2022-08-19T22:08:23.581Z,24.20
2022-08-19T22:10:53.011Z,24.00
2022-08-19T22:13:21.222Z,24.00
2022-08-19T22:15:51.745Z,24.00
2022-08-19T22:18:19.507Z,23.90
2022-08-19T22:20:47.702Z,23.80
2022-08-19T22:23:15.574Z,23.70
2022-08-19T22:25:46.353Z,23.60
2022-08-19T22:28:18.732Z,23.50
2022-08-19T22:30:51.165Z,23.40
2022-08-19T22:33:22.465Z,23.40
2022-08-19T22:35:52.095Z,23.20
2022-08-19T22:38:19.909Z,23.20
2022-08-19T22:41:01.695Z,23.30
2022-08-19T22:43:32.327Z,23.20
2022-08-19T22:46:01.423Z,23.20
2022-08-19T22:48:31.176Z,23.10
2022-08-19T22:51:13.647Z,23.10
2022-08-19T22:53:44.795Z,22.80
2022-08-19T22:56:15.492Z,22.80
2022-08-19T22:58:45.951Z,22.50
2022-08-19T23:01:29.661Z,22.50
2022-08-19T23:03:59.166Z,22.50
2022-08-19T23:06:33.301Z,22.60
2022-08-19T23:09:04.794Z,22.60
2022-08-19T23:11:35.470Z,22.70
2022-08-19T23:14:05.999Z,22.70
2022-08-19T23:16:36.546Z,22.70
2022-08-19T23:19:04.603Z,22.80
2022-08-19T23:21:32.408Z,22.80
2022-08-19T23:24:00.170Z,22.80
2022-08-19T23:26:29.244Z,22.80
2022-08-19T23:29:13.333Z,22.80
2022-08-19T23:31:42.398Z,22.80
2022-08-19T23:34:10.218Z,22.70
2022-08-19T23:36:38.615Z,22.70
2022-08-19T23:39:06.335Z,22.70
2022-08-19T23:41:34.100Z,22.80
2022-08-19T23:44:01.803Z,22.80
2022-08-19T23:46:29.618Z,22.70
2022-08-19T23:48:59.627Z,22.50
2022-08-19T23:51:27.380Z,22.40
2022-08-19T23:53:55.395Z,22.30
2022-08-19T23:56:23.123Z,22.20
2022-08-19T23:58:50.899Z,22.30
